Main page
METAR-TAF:

METAR-TAF

Airports :

Gibraltar International Airport

Gibraltar, Gibraltar

latitude: 36-09N, longitude: 005-21W, elevation: 5 m

Current weather observation

The report was made 32 minutes ago, at 11:50 UTC
Wind 8 kt from the East
Temperature 20°C
Humidity 78%
Pressure 1018 hPa
Visibility 10 km or more
Few clouds at a height of 2000 ft

METAR: LXGB 251150Z 09008KT 9999 FEW020 20/16 Q1018 NOSIG

Time: 14:22 (12:22 UTC)

Forecast

The report was made 1 hour and 39 minutes ago, at 10:43 UTC
Forecast valid from 25 at 12 UTC to 25 at 21 UTC
Wind 6 kt from the East/Northeast
Visibility 10 km or more
Few clouds at a height of 1000 ft

TAF: LXGB 251043Z 2512/2521 06006KT 9999 FEW010

Weather observations and forecasts of more than 4000 airports (METAR and TAF reports).

The available stations are represented by yellow and red dots on the map.

Hover mouse over dot to see the name of the station.

Then click to see weather observations and forecasts.

To change the map : click on the green buttons with a black cross to zoom in, on the green button with a dash to zoom out, or on the green arrows for adjacent maps.


METAR-TAF: